createdAt,value
2019-03-13T00:00:10.896Z,8.40
2019-03-13T00:02:42.375Z,7.87
2019-03-13T00:05:13.535Z,8.88
2019-03-13T00:07:43.783Z,9.23
2019-03-13T00:10:15.102Z,8.50
2019-03-13T00:12:44.855Z,8.18
2019-03-13T00:15:16.526Z,7.58
2019-03-13T00:17:47.199Z,8.97
2019-03-13T00:20:16.768Z,8.67
2019-03-13T00:22:46.413Z,9.90
2019-03-13T00:25:16.088Z,8.40
2019-03-13T00:27:45.642Z,11.43
2019-03-13T00:30:16.681Z,9.33
2019-03-13T00:32:46.335Z,10.75
2019-03-13T00:35:16.183Z,9.03
2019-03-13T00:37:45.807Z,10.23
2019-03-13T00:40:15.730Z,9.80
2019-03-13T00:42:45.743Z,8.98
2019-03-13T00:45:16.427Z,9.83
2019-03-13T00:47:45.971Z,8.33
2019-03-13T00:50:24.338Z,7.53
2019-03-13T00:52:53.895Z,8.23
2019-03-13T00:55:23.803Z,8.35
2019-03-13T00:57:53.588Z,7.77
2019-03-13T01:00:41.552Z,8.98
2019-03-13T01:03:24.783Z,7.50
2019-03-13T01:06:01.232Z,8.30
2019-03-13T01:08:30.889Z,7.87
2019-03-13T01:11:02.368Z,7.67
2019-03-13T01:13:33.879Z,8.33
2019-03-13T01:16:04.955Z,8.83
2019-03-13T01:18:34.734Z,6.60
2019-03-13T01:21:04.453Z,6.70
2019-03-13T01:23:34.227Z,7.50
2019-03-13T01:26:04.516Z,8.35
2019-03-13T01:28:34.803Z,8.45
2019-03-13T01:31:27.683Z,8.07
2019-03-13T01:34:11.941Z,8.73
2019-03-13T01:36:42.819Z,8.28
2019-03-13T01:39:12.423Z,8.83
2019-03-13T01:41:42.118Z,8.40
2019-03-13T01:44:11.863Z,8.48
2019-03-13T01:46:41.683Z,8.78
2019-03-13T01:49:11.603Z,9.10
2019-03-13T01:51:41.727Z,8.33
2019-03-13T01:54:11.271Z,9.05
2019-03-13T01:56:41.463Z,9.43
2019-03-13T01:59:11.175Z,9.63
2019-03-13T02:01:42.144Z,8.40
2019-03-13T02:04:11.903Z,8.58
2019-03-13T02:06:41.548Z,9.35
2019-03-13T02:09:11.474Z,8.83
2019-03-13T02:11:41.127Z,10.30
2019-03-13T02:14:10.762Z,9.03
2019-03-13T02:16:41.501Z,9.20
2019-03-13T02:19:11.155Z,9.70
2019-03-13T02:21:40.879Z,8.60
2019-03-13T02:24:10.466Z,9.85
2019-03-13T02:26:40.348Z,8.60
2019-03-13T02:29:10.039Z,9.43
2019-03-13T02:31:40.719Z,8.55
2019-03-13T02:34:10.411Z,9.15
2019-03-13T02:36:40.033Z,8.98
2019-03-13T02:39:10.767Z,8.90
2019-03-13T02:41:40.430Z,9.85
2019-03-13T02:44:10.081Z,9.83
2019-03-13T02:46:39.958Z,9.53
2019-03-13T02:49:09.763Z,9.47
2019-03-13T02:51:39.455Z,8.73
2019-03-13T02:54:09.191Z,10.40
2019-03-13T02:56:39.272Z,9.05
2019-03-13T02:59:09.443Z,9.43
2019-03-13T03:01:53.387Z,9.80
2019-03-13T03:04:23.282Z,10.18
2019-03-13T03:06:53.592Z,10.25
2019-03-13T03:09:25.191Z,8.68
2019-03-13T03:11:56.056Z,9.75
2019-03-13T03:14:26.677Z,10.58
2019-03-13T03:16:56.281Z,11.05
2019-03-13T03:19:28.152Z,9.70
2019-03-13T03:21:57.683Z,10.10
2019-03-13T03:24:27.392Z,10.10
2019-03-13T03:26:56.924Z,9.60
2019-03-13T03:29:26.778Z,11.50
2019-03-13T03:31:57.533Z,10.23
2019-03-13T03:34:27.160Z,11.28
2019-03-13T03:36:56.873Z,11.40
2019-03-13T03:39:26.527Z,10.40
2019-03-13T03:41:56.130Z,10.53
2019-03-13T03:44:25.863Z,9.68
2019-03-13T03:46:55.627Z,11.57
2019-03-13T03:49:25.422Z,10.95
2019-03-13T03:51:55.212Z,9.13
2019-03-13T03:54:26.333Z,11.12
2019-03-13T03:56:56.012Z,9.45
2019-03-13T03:59:25.909Z,10.30
2019-03-13T04:01:55.747Z,11.25
2019-03-13T04:04:25.354Z,10.63
2019-03-13T04:06:56.765Z,10.60
2019-03-13T04:09:26.376Z,11.12
2019-03-13T04:11:56.040Z,13.22
2019-03-13T04:14:26.148Z,10.48
2019-03-13T04:16:56.526Z,10.23
2019-03-13T04:19:26.376Z,10.23
2019-03-13T04:21:56.141Z,15.23
2019-03-13T04:24:25.791Z,11.78
2019-03-13T04:26:55.544Z,10.53
2019-03-13T04:29:25.426Z,13.50
2019-03-13T04:31:55.227Z,11.90
2019-03-13T04:34:26.024Z,11.43
2019-03-13T04:36:57.751Z,12.03
2019-03-13T04:39:27.472Z,10.98
2019-03-13T04:41:58.680Z,14.93
2019-03-13T04:44:28.384Z,11.45
2019-03-13T04:46:58.079Z,12.28
2019-03-13T04:49:30.468Z,11.30
2019-03-13T04:52:00.057Z,10.82
2019-03-13T04:54:29.744Z,12.65
2019-03-13T04:56:59.435Z,13.22
2019-03-13T04:59:28.999Z,10.50
2019-03-13T05:01:59.632Z,11.75
2019-03-13T05:04:31.784Z,10.93
2019-03-13T05:07:03.939Z,11.63
2019-03-13T05:09:38.308Z,11.93
2019-03-13T05:12:08.040Z,11.50
2019-03-13T05:14:38.028Z,13.88
2019-03-13T05:17:07.909Z,10.35
2019-03-13T05:19:37.439Z,10.85
2019-03-13T05:22:08.574Z,14.05
2019-03-13T05:24:38.302Z,13.03
2019-03-13T05:27:08.171Z,10.57
2019-03-13T05:29:37.866Z,11.83
2019-03-13T05:32:07.665Z,11.12
2019-03-13T05:34:37.378Z,9.63
2019-03-13T05:37:07.239Z,10.43
2019-03-13T05:39:36.979Z,10.85
2019-03-13T05:42:06.703Z,11.80
2019-03-13T05:44:36.773Z,11.93
2019-03-13T05:47:06.568Z,12.70
2019-03-13T05:49:36.343Z,13.15
2019-03-13T05:52:06.165Z,16.82
2019-03-13T05:54:36.586Z,13.83
2019-03-13T05:57:06.281Z,11.13
2019-03-13T05:59:36.055Z,10.25
2019-03-13T06:02:06.808Z,13.20
2019-03-13T06:04:36.696Z,13.70
2019-03-13T06:07:07.352Z,9.53
2019-03-13T06:09:37.560Z,11.88
2019-03-13T06:12:07.179Z,16.82
2019-03-13T06:14:37.353Z,12.43
2019-03-13T06:17:07.371Z,13.98
2019-03-13T06:19:38.170Z,12.55
2019-03-13T06:22:07.868Z,14.65
2019-03-13T06:24:37.651Z,10.30
2019-03-13T06:27:07.395Z,15.38
2019-03-13T06:29:37.015Z,16.20
2019-03-13T06:32:06.561Z,10.38
2019-03-13T06:34:37.266Z,11.73
2019-03-13T06:37:06.838Z,15.85
2019-03-13T06:39:37.635Z,13.83
2019-03-13T06:42:07.374Z,14.03
2019-03-13T06:44:37.173Z,12.83
2019-03-13T06:47:06.759Z,11.85
2019-03-13T06:49:37.543Z,15.18
2019-03-13T06:52:07.095Z,13.50
2019-03-13T06:54:36.823Z,9.63
2019-03-13T06:57:06.442Z,10.90
2019-03-13T06:59:55.274Z,11.93
2019-03-13T07:02:43.797Z,11.20
2019-03-13T07:05:32.422Z,13.68
2019-03-13T07:08:41.172Z,12.23
2019-03-13T07:11:47.911Z,10.78
2019-03-13T07:14:36.471Z,11.05
2019-03-13T07:17:25.983Z,12.53
2019-03-13T07:20:13.743Z,14.68
2019-03-13T07:23:03.307Z,12.33
2019-03-13T07:25:51.943Z,10.95
2019-03-13T07:28:37.458Z,13.98
2019-03-13T07:31:25.956Z,12.07
2019-03-13T07:34:13.180Z,13.30
2019-03-13T07:36:52.528Z,12.00
2019-03-13T07:39:32.039Z,13.68
2019-03-13T07:42:29.595Z,14.30
2019-03-13T07:45:33.437Z,13.13
2019-03-13T07:48:21.402Z,11.80
2019-03-13T07:51:16.148Z,10.65
2019-03-13T07:54:16.998Z,12.55
2019-03-13T07:57:06.791Z,11.40
2019-03-13T07:59:55.403Z,10.90
2019-03-13T08:02:42.813Z,11.97
2019-03-13T08:05:21.272Z,11.43
2019-03-13T08:08:10.991Z,11.28
2019-03-13T08:10:53.382Z,11.38
2019-03-13T08:13:34.071Z,11.28
2019-03-13T08:16:29.942Z,13.00
2019-03-13T08:19:30.990Z,11.43
2019-03-13T08:22:25.264Z,10.85
2019-03-13T08:25:08.077Z,13.20
2019-03-13T08:28:05.430Z,12.53
2019-03-13T08:30:58.219Z,11.23
2019-03-13T08:33:49.651Z,11.28
2019-03-13T08:36:40.759Z,11.43
2019-03-13T08:39:22.643Z,11.97
2019-03-13T08:42:20.487Z,10.30
2019-03-13T08:45:11.843Z,10.03
2019-03-13T08:48:03.514Z,12.13
2019-03-13T08:50:52.056Z,11.20
2019-03-13T08:53:47.882Z,11.33
2019-03-13T08:56:36.371Z,11.80
2019-03-13T08:59:24.935Z,10.40
2019-03-13T09:02:02.314Z,11.88
2019-03-13T09:05:01.112Z,11.40
2019-03-13T09:07:58.484Z,12.18
2019-03-13T09:10:47.112Z,10.83
2019-03-13T09:13:24.516Z,11.13
2019-03-13T09:16:10.818Z,11.30
2019-03-13T09:18:59.484Z,14.30
2019-03-13T09:21:38.133Z,15.50
2019-03-13T09:24:35.795Z,12.85
2019-03-13T09:27:23.400Z,12.28
2019-03-13T09:30:24.726Z,10.08
2019-03-13T09:33:16.231Z,11.55
2019-03-13T09:36:10.800Z,11.03
2019-03-13T09:38:59.557Z,10.65
2019-03-13T09:42:03.170Z,10.30
2019-03-13T09:45:02.473Z,10.85
2019-03-13T09:47:44.562Z,11.30
2019-03-13T09:50:31.975Z,12.23
2019-03-13T09:53:23.611Z,10.28
2019-03-13T09:56:10.926Z,13.73
2019-03-13T09:59:05.573Z,11.57
2019-03-13T10:02:06.452Z,12.35
2019-03-13T10:05:00.987Z,9.83
2019-03-13T10:07:48.486Z,12.20
2019-03-13T10:10:36.979Z,10.60
2019-03-13T10:13:24.183Z,11.25
2019-03-13T10:16:15.611Z,11.78
2019-03-13T10:19:04.276Z,11.95
2019-03-13T10:21:49.720Z,11.88
2019-03-13T10:24:44.459Z,11.33
2019-03-13T10:27:42.279Z,11.85
2019-03-13T10:30:22.760Z,11.40
2019-03-13T10:33:12.557Z,9.68
2019-03-13T10:36:13.851Z,11.95
2019-03-13T10:39:01.723Z,11.85
2019-03-13T10:41:37.470Z,11.25
2019-03-13T10:44:17.087Z,13.65
2019-03-13T10:47:01.983Z,10.68
2019-03-13T10:49:50.687Z,12.25
2019-03-13T10:52:48.887Z,11.08
2019-03-13T10:55:37.480Z,11.70
2019-03-13T10:58:14.106Z,9.98
2019-03-13T11:01:02.716Z,10.43
2019-03-13T11:03:52.395Z,10.80
2019-03-13T11:06:39.738Z,9.43
2019-03-13T11:09:20.723Z,11.15
2019-03-13T11:12:09.250Z,9.53
2019-03-13T11:14:57.436Z,10.08
2019-03-13T11:18:02.947Z,10.72
2019-03-13T11:20:50.093Z,10.72
2019-03-13T11:23:54.247Z,11.22
2019-03-13T11:26:47.160Z,11.03
2019-03-13T11:29:39.426Z,10.85
2019-03-13T11:32:31.146Z,11.73
2019-03-13T11:35:18.603Z,10.50
2019-03-13T11:37:54.169Z,10.90
2019-03-13T11:40:45.385Z,10.28
2019-03-13T11:43:41.351Z,10.18
2019-03-13T11:46:30.179Z,10.73
2019-03-13T11:49:25.637Z,9.47
2019-03-13T11:52:31.477Z,10.35
2019-03-13T11:55:18.040Z,10.60
2019-03-13T11:58:09.319Z,13.20
2019-03-13T12:01:10.343Z,11.75
2019-03-13T12:03:57.587Z,11.23
2019-03-13T12:06:55.483Z,11.68
2019-03-13T12:09:34.746Z,9.65
2019-03-13T12:12:15.739Z,11.85
2019-03-13T12:15:07.199Z,11.33
2019-03-13T12:17:56.083Z,12.50
2019-03-13T12:20:47.294Z,11.28
2019-03-13T12:23:36.095Z,11.03
2019-03-13T12:26:12.167Z,10.93
2019-03-13T12:29:13.007Z,11.18
2019-03-13T12:31:49.540Z,10.43
2019-03-13T12:34:35.159Z,8.83
2019-03-13T12:37:33.891Z,10.23
2019-03-13T12:40:28.705Z,9.68
2019-03-13T12:43:17.395Z,10.10
2019-03-13T12:46:05.854Z,10.82
2019-03-13T12:49:03.795Z,10.90
2019-03-13T12:51:47.408Z,9.13
2019-03-13T12:54:36.158Z,11.55
2019-03-13T12:57:19.640Z,10.50
2019-03-13T13:00:05.715Z,11.45
2019-03-13T13:02:55.278Z,9.83
2019-03-13T13:05:43.328Z,10.72
2019-03-13T13:08:28.258Z,9.58
2019-03-13T13:11:15.683Z,12.05
2019-03-13T13:14:04.467Z,10.63
2019-03-13T13:16:58.887Z,10.58
2019-03-13T13:19:28.522Z,8.93
2019-03-13T13:22:00.026Z,9.90
2019-03-13T13:24:29.799Z,10.95
2019-03-13T13:27:00.606Z,11.22
2019-03-13T13:29:30.400Z,12.27
2019-03-13T13:32:00.177Z,10.53
2019-03-13T13:34:30.134Z,10.00
2019-03-13T13:37:00.140Z,10.27
2019-03-13T13:39:31.715Z,9.55
2019-03-13T13:42:04.262Z,11.78
2019-03-13T13:44:35.064Z,10.20
2019-03-13T13:47:04.756Z,9.50
2019-03-13T13:49:34.481Z,10.70
2019-03-13T13:52:05.409Z,11.30
2019-03-13T13:54:35.012Z,10.30
2019-03-13T13:57:08.408Z,12.50
2019-03-13T13:59:38.412Z,10.60
2019-03-13T14:02:09.285Z,10.45
2019-03-13T14:04:38.859Z,10.20
2019-03-13T14:07:08.545Z,10.25
2019-03-13T14:09:38.638Z,10.95
2019-03-13T14:12:08.241Z,10.45
2019-03-13T14:14:37.891Z,10.20
2019-03-13T14:17:07.456Z,11.53
2019-03-13T14:19:37.204Z,11.90
2019-03-13T14:22:06.782Z,11.95
2019-03-13T14:24:36.673Z,12.10
2019-03-13T14:27:14.474Z,11.65
2019-03-13T14:29:37.438Z,13.83
2019-03-13T14:32:09.077Z,12.20
2019-03-13T14:34:38.633Z,10.05
2019-03-13T14:37:08.423Z,11.70
2019-03-13T14:39:39.512Z,12.23
2019-03-13T14:42:09.240Z,11.40
2019-03-13T14:44:39.045Z,11.38
2019-03-13T14:47:08.752Z,10.48
2019-03-13T14:49:40.177Z,10.70
2019-03-13T14:52:09.779Z,10.72
2019-03-13T14:54:41.237Z,11.48
2019-03-13T14:57:10.955Z,10.85
2019-03-13T14:59:40.877Z,11.53
2019-03-13T15:02:10.751Z,12.85
2019-03-13T15:04:40.463Z,10.10
2019-03-13T15:07:11.236Z,10.32
2019-03-13T15:09:40.924Z,9.90
2019-03-13T15:12:10.700Z,11.63
2019-03-13T15:14:41.298Z,11.45
2019-03-13T15:17:11.112Z,11.85
2019-03-13T15:19:42.560Z,12.03
2019-03-13T15:22:12.271Z,11.08
2019-03-13T15:24:42.083Z,11.18
2019-03-13T15:27:11.786Z,12.35
2019-03-13T15:29:41.621Z,11.30
2019-03-13T15:32:11.339Z,11.48
2019-03-13T15:34:42.955Z,9.33
2019-03-13T15:37:12.787Z,14.43
2019-03-13T15:39:42.558Z,12.30
2019-03-13T15:42:12.119Z,13.00
2019-03-13T15:44:42.547Z,12.00
2019-03-13T15:47:12.172Z,9.23
2019-03-13T15:49:43.292Z,8.80
2019-03-13T15:52:13.502Z,9.98
2019-03-13T15:54:43.287Z,10.50
2019-03-13T15:57:12.940Z,11.20
2019-03-13T15:59:43.675Z,10.75
2019-03-13T16:02:14.706Z,8.80
2019-03-13T16:04:45.598Z,8.78
2019-03-13T16:07:16.811Z,9.25
2019-03-13T16:09:47.674Z,11.08
2019-03-13T16:12:17.876Z,9.80
2019-03-13T16:14:47.508Z,9.88
2019-03-13T16:17:17.159Z,10.80
2019-03-13T16:19:47.142Z,11.03
2019-03-13T16:22:17.911Z,9.90
2019-03-13T16:24:48.602Z,10.75
2019-03-13T16:27:19.152Z,10.65
2019-03-13T16:29:48.883Z,9.70
2019-03-13T16:32:19.966Z,9.60
2019-03-13T16:34:49.543Z,10.68
2019-03-13T16:37:20.452Z,10.08
2019-03-13T16:39:50.005Z,10.05
2019-03-13T16:42:19.839Z,10.68
2019-03-13T16:44:49.565Z,8.95
2019-03-13T16:47:19.318Z,8.40
2019-03-13T16:49:50.719Z,8.93
2019-03-13T16:52:20.347Z,8.03
2019-03-13T16:54:49.929Z,8.00
2019-03-13T16:57:19.768Z,10.65
2019-03-13T17:00:00.000Z,9.60
2019-03-13T17:02:20.803Z,9.73
2019-03-13T17:04:50.934Z,10.72
2019-03-13T17:07:20.580Z,11.03
2019-03-13T17:09:50.501Z,12.15
2019-03-13T17:12:20.295Z,11.20
2019-03-13T17:14:50.031Z,10.05
2019-03-13T17:17:19.602Z,8.98
2019-03-13T17:19:49.312Z,8.58
2019-03-13T17:22:19.032Z,9.30
2019-03-13T17:24:48.560Z,9.30
2019-03-13T17:27:19.734Z,10.78
2019-03-13T17:29:51.035Z,12.90
2019-03-13T17:32:22.629Z,9.70
2019-03-13T17:34:53.647Z,10.93
2019-03-13T17:37:24.063Z,13.70
2019-03-13T17:39:53.894Z,10.35
2019-03-13T17:42:25.460Z,11.33
2019-03-13T17:44:55.142Z,11.30
2019-03-13T17:47:26.188Z,10.75
2019-03-13T17:49:57.095Z,9.63
2019-03-13T17:52:27.813Z,10.00
2019-03-13T17:54:57.448Z,8.30
2019-03-13T17:57:27.059Z,10.80
2019-03-13T17:59:56.729Z,9.03
2019-03-13T18:02:26.309Z,9.55
2019-03-13T18:04:55.959Z,11.25
2019-03-13T18:07:25.731Z,10.23
2019-03-13T18:09:55.649Z,8.87
2019-03-13T18:12:25.582Z,11.22
2019-03-13T18:14:55.648Z,12.20
2019-03-13T18:17:29.024Z,12.47
2019-03-13T18:19:59.671Z,12.13
2019-03-13T18:22:29.497Z,8.38
2019-03-13T18:24:59.547Z,8.67
2019-03-13T18:27:30.831Z,10.63
2019-03-13T18:30:00.540Z,11.50
2019-03-13T18:32:41.400Z,11.40
2019-03-13T18:35:02.993Z,8.97
2019-03-13T18:37:32.747Z,11.97
2019-03-13T18:40:02.616Z,11.83
2019-03-13T18:42:32.260Z,14.70
2019-03-13T18:45:01.860Z,16.10
2019-03-13T18:47:33.000Z,12.78
2019-03-13T18:50:02.739Z,12.80
2019-03-13T18:52:32.403Z,11.10
2019-03-13T18:55:02.675Z,10.80
2019-03-13T18:57:32.973Z,9.35
2019-03-13T19:00:03.088Z,9.20
2019-03-13T19:02:32.663Z,10.67
2019-03-13T19:05:03.724Z,10.87
2019-03-13T19:07:33.464Z,14.15
2019-03-13T19:10:04.316Z,15.00
2019-03-13T19:12:34.154Z,12.67
2019-03-13T19:15:04.151Z,16.95
2019-03-13T19:17:34.853Z,19.77
2019-03-13T19:20:04.940Z,17.57
2019-03-13T19:22:34.508Z,20.50
2019-03-13T19:25:04.527Z,14.68
2019-03-13T19:27:34.572Z,21.23
2019-03-13T19:30:04.661Z,12.68
2019-03-13T19:32:34.292Z,12.80
2019-03-13T19:35:05.541Z,14.87
2019-03-13T19:37:35.155Z,13.72
2019-03-13T19:40:06.973Z,14.28
2019-03-13T19:42:37.205Z,15.60
2019-03-13T19:45:10.091Z,14.00
2019-03-13T19:47:40.311Z,11.48
2019-03-13T19:50:10.408Z,12.30
2019-03-13T19:52:40.188Z,10.48
2019-03-13T19:55:11.195Z,16.40
2019-03-13T19:57:42.835Z,17.75
2019-03-13T20:00:14.872Z,12.47
2019-03-13T20:02:44.420Z,11.33
2019-03-13T20:05:14.512Z,10.63
2019-03-13T20:07:44.108Z,11.75
2019-03-13T20:10:18.623Z,10.30
2019-03-13T20:12:48.711Z,11.00
2019-03-13T20:15:19.739Z,9.30
2019-03-13T20:17:50.588Z,9.08
2019-03-13T20:20:21.154Z,9.33
2019-03-13T20:22:52.565Z,8.93
2019-03-13T20:25:23.723Z,10.88
2019-03-13T20:27:54.809Z,10.38
2019-03-13T20:30:26.380Z,11.70
2019-03-13T20:32:55.984Z,11.40
2019-03-13T20:35:25.661Z,11.90
2019-03-13T20:37:55.517Z,12.23
2019-03-13T20:40:25.666Z,11.68
2019-03-13T20:42:55.357Z,12.80
2019-03-13T20:45:25.491Z,11.63
2019-03-13T20:47:55.531Z,10.30
2019-03-13T20:50:36.519Z,11.63
2019-03-13T20:52:59.285Z,13.03
2019-03-13T20:55:29.095Z,11.78
2019-03-13T20:57:59.318Z,10.85
2019-03-13T21:00:29.386Z,8.85
2019-03-13T21:03:00.695Z,9.80
2019-03-13T21:05:31.930Z,12.30
2019-03-13T21:08:01.730Z,13.20
2019-03-13T21:10:34.335Z,12.00
2019-03-13T21:13:04.269Z,12.47
2019-03-13T21:15:34.316Z,12.77
2019-03-13T21:18:03.936Z,11.53
2019-03-13T21:20:33.658Z,13.62
2019-03-13T21:23:03.328Z,10.40
2019-03-13T21:25:32.935Z,15.03
2019-03-13T21:28:02.508Z,14.63
2019-03-13T21:30:33.716Z,11.40
2019-03-13T21:33:03.576Z,11.25
2019-03-13T21:35:33.184Z,12.60
2019-03-13T21:38:03.024Z,9.75
2019-03-13T21:40:32.747Z,10.63
2019-03-13T21:43:03.819Z,11.70
2019-03-13T21:45:40.996Z,9.90
2019-03-13T21:48:06.021Z,10.10
2019-03-13T21:50:35.610Z,11.05
2019-03-13T21:53:05.383Z,10.55
2019-03-13T21:55:35.429Z,10.70
2019-03-13T21:58:05.719Z,10.85
2019-03-13T22:00:35.285Z,12.40
2019-03-13T22:03:06.204Z,10.80
2019-03-13T22:05:35.750Z,12.20
2019-03-13T22:08:05.497Z,9.93
2019-03-13T22:10:35.091Z,11.15
2019-03-13T22:13:05.805Z,9.70
2019-03-13T22:15:35.379Z,10.72
2019-03-13T22:18:05.028Z,9.98
2019-03-13T22:20:34.964Z,12.05
2019-03-13T22:23:06.306Z,7.83
2019-03-13T22:25:35.934Z,11.12
2019-03-13T22:28:07.019Z,10.53
2019-03-13T22:30:38.425Z,10.40
2019-03-13T22:33:08.078Z,10.82
2019-03-13T22:35:39.158Z,10.23
2019-03-13T22:38:08.732Z,9.80
2019-03-13T22:40:40.264Z,10.35
2019-03-13T22:43:09.820Z,9.70
2019-03-13T22:45:40.641Z,9.75
2019-03-13T22:48:11.996Z,10.88
2019-03-13T22:50:43.413Z,8.83
2019-03-13T22:53:13.106Z,9.80
2019-03-13T22:55:44.200Z,9.85
2019-03-13T22:58:13.775Z,10.95
2019-03-13T23:00:59.926Z,9.43
2019-03-13T23:03:31.910Z,10.50
2019-03-13T23:06:01.948Z,9.70
2019-03-13T23:08:31.648Z,8.60
2019-03-13T23:11:02.623Z,10.85
2019-03-13T23:13:32.143Z,9.68
2019-03-13T23:16:01.852Z,9.43
2019-03-13T23:18:31.387Z,10.55
2019-03-13T23:21:01.011Z,10.88
2019-03-13T23:23:30.584Z,11.33
2019-03-13T23:26:00.512Z,11.63
2019-03-13T23:28:30.097Z,9.57
2019-03-13T23:30:59.989Z,9.80
2019-03-13T23:33:31.426Z,8.98
2019-03-13T23:36:01.007Z,10.48
2019-03-13T23:38:30.767Z,10.75
2019-03-13T23:41:01.800Z,9.80
2019-03-13T23:43:31.861Z,10.85
2019-03-13T23:46:02.469Z,9.78
2019-03-13T23:48:32.656Z,10.32
2019-03-13T23:51:02.846Z,10.40
2019-03-13T23:53:33.891Z,9.88
2019-03-13T23:56:03.647Z,9.43
2019-03-13T23:58:33.423Z,11.85
